Time;durP1;ratioP1;P1;durP2;ratioP2;P2;SDS_P1;SDS_P2;PMS_P1;PMS_P2;Temp;Humidity;BMP_temperature;BMP_pressure;BME280_temperature;BME280_humidity;BME280_pressure;Samples;Min_cycle;Max_cycle;Signal;HPM_P1;HPM_P2
2022/12/23 00:01:19;;;;;;;0.10;0.10;;;9.80;99.90;;;;;;6178767;23;20086;-91
2022/12/23 00:03:45;;;;;;;0.10;0.10;;;;;;;;;;6179525;23;20020;-90
2022/12/23 00:06:16;;;;;;;0.10;0.10;;;9.90;99.90;;;;;;6175853;23;19998;-88
2022/12/23 00:08:42;;;;;;;0.10;0.10;;;;;;;;;;6180408;23;20009;-92
2022/12/23 00:11:18;;;;;;;0.10;0.10;;;9.90;99.90;;;;;;6178819;23;20005;-92
2022/12/23 00:16:29;;;;;;;0.00;0.00;;;;;;;;;;6206121;23;20004;-91
2022/12/23 00:18:55;;;;;;;0.00;0.00;;;;;;;;;;6181967;23;19989;-89
2022/12/23 00:21:21;;;;;;;0.10;0.10;;;10.00;99.90;;;;;;6179369;23;20005;-92
2022/12/23 00:23:49;;;;;;;0.10;0.10;;;10.00;99.90;;;;;;6179772;23;20001;-90
2022/12/23 00:26:14;;;;;;;0.10;0.10;;;;;;;;;;6179902;23;20001;-91
2022/12/23 00:28:40;;;;;;;0.00;0.00;;;;;;;;;;6179957;23;20021;-90
2022/12/23 00:31:06;;;;;;;0.10;0.10;;;10.00;99.90;;;;;;6179126;23;20032;-91
2022/12/23 00:33:38;;;;;;;0.05;0.05;;;10.00;99.90;;;;;;6179941;23;20009;-89
2022/12/23 00:36:29;;;;;;;0.00;0.00;;;10.00;99.90;;;;;;6175523;23;20001;-90
2022/12/23 00:44:25;;;;;;;0.00;0.00;;;10.10;99.90;;;;;;6206055;23;20040;-90
2022/12/23 00:46:51;;;;;;;0.00;0.00;;;;;;;;;;6180110;23;20001;-91
2022/12/23 00:52:04;;;;;;;0.00;0.00;;;10.10;99.90;;;;;;6205477;23;20035;-91
2022/12/23 00:54:30;;;;;;;0.10;0.10;;;10.10;99.90;;;;;;6176330;23;20009;-92
2022/12/23 00:56:56;;;;;;;0.00;0.00;;;10.20;99.90;;;;;;6182146;23;20016;-91
2022/12/23 00:59:22;;;;;;;0.00;0.00;;;10.10;99.90;;;;;;6177990;23;20068;-90
2022/12/23 01:07:27;;;;;;;0.00;0.00;;;;;;;;;;6174310;23;20005;-91
2022/12/23 01:09:52;;;;;;;0.00;0.00;;;10.20;99.90;;;;;;6175971;23;20001;-92
2022/12/23 01:12:18;;;;;;;0.00;0.00;;;10.30;99.90;;;;;;6178153;23;20017;-91
2022/12/23 01:14:44;;;;;;;0.10;0.10;;;10.20;99.90;;;;;;6175627;23;20001;-91
2022/12/23 01:17:09;;;;;;;0.10;0.10;;;10.40;99.90;;;;;;6177670;23;19985;-90
2022/12/23 01:19:35;;;;;;;0.00;0.00;;;;;;;;;;6179088;23;20013;-91
2022/12/23 01:22:01;;;;;;;0.03;0.03;;;10.30;99.90;;;;;;6179928;23;19985;-90
2022/12/23 01:24:28;;;;;;;0.00;0.00;;;10.30;99.90;;;;;;6177770;23;20015;-90
2022/12/23 01:26:53;;;;;;;0.00;0.00;;;10.30;99.90;;;;;;6179623;23;20426;-90
2022/12/23 01:29:19;;;;;;;0.00;0.00;;;11.40;99.90;;;;;;6176941;23;19997;-89
2022/12/23 01:31:44;;;;;;;0.00;0.00;;;10.50;99.90;;;;;;6176647;23;20052;-91
2022/12/23 01:34:10;;;;;;;0.00;0.00;;;10.20;99.90;;;;;;6178563;23;20083;-90
2022/12/23 01:36:35;;;;;;;0.00;0.00;;;10.40;99.90;;;;;;6179633;23;20005;-91
2022/12/23 01:39:01;;;;;;;0.00;0.00;;;10.40;99.90;;;;;;6178635;23;20009;-88
2022/12/23 01:44:52;;;;;;;0.00;0.00;;;10.40;99.90;;;;;;6204398;23;20036;-91
2022/12/23 01:47:39;;;;;;;0.00;0.00;;;10.30;99.90;;;;;;6177170;23;20005;-91
2022/12/23 01:50:14;;;;;;;0.00;0.00;;;10.30;99.90;;;;;;6175139;23;20001;-90
2022/12/23 01:53:10;;;;;;;0.00;0.00;;;10.20;99.90;;;;;;6177586;23;20085;-90
2022/12/23 01:55:54;;;;;;;0.10;0.10;;;10.30;99.90;;;;;;6175620;23;20001;-91
2022/12/23 01:58:23;;;;;;;0.10;0.10;;;10.30;99.90;;;;;;6178381;23;20005;-92
2022/12/23 02:03:42;;;;;;;0.00;0.00;;;10.10;99.90;;;;;;6171377;23;20021;-92
2022/12/23 02:09:16;;;;;;;0.10;0.10;;;10.40;99.90;;;;;;6203606;23;20088;-91
2022/12/23 02:12:13;;;;;;;0.03;0.03;;;10.40;99.90;;;;;;6178986;23;20005;-91
2022/12/23 02:17:42;;;;;;;0.10;0.10;;;10.30;99.90;;;;;;6204516;23;20081;-91
2022/12/23 02:20:45;;;;;;;0.10;0.10;;;10.30;99.90;;;;;;6206400;23;20024;-91
2022/12/23 02:23:49;;;;;;;0.10;0.10;;;10.30;99.90;;;;;;6175022;23;20001;-91
2022/12/23 02:26:44;;;;;;;0.03;0.03;;;10.30;99.90;;;;;;6178938;23;20033;-91
2022/12/23 02:29:35;;;;;;;0.10;0.10;;;10.30;99.90;;;;;;6177567;23;20023;-90
2022/12/23 02:32:13;;;;;;;0.03;0.03;;;10.40;99.90;;;;;;6178395;23;20005;-90
2022/12/23 02:35:01;;;;;;;0.10;0.10;;;10.40;99.90;;;;;;6179222;23;20012;-91
2022/12/23 02:37:45;;;;;;;0.10;0.10;;;10.30;99.90;;;;;;6178567;23;20457;-91
2022/12/23 02:40:26;;;;;;;0.10;0.10;;;10.30;99.90;;;;;;6179184;23;19993;-90
2022/12/23 02:43:17;;;;;;;0.00;0.00;;;10.30;99.90;;;;;;6179025;23;20005;-90
2022/12/23 02:45:55;;;;;;;0.10;0.10;;;10.30;99.90;;;;;;6177121;23;20037;-91
2022/12/23 02:48:32;;;;;;;0.00;0.00;;;10.30;99.90;;;;;;6178998;23;20005;-90
2022/12/23 02:51:00;;;;;;;0.00;0.00;;;10.30;99.90;;;;;;6176730;23;20035;-91
2022/12/23 02:53:31;;;;;;;0.10;0.10;;;10.30;99.90;;;;;;6177107;23;20008;-91
2022/12/23 02:55:58;;;;;;;0.10;0.10;;;11.90;99.90;;;;;;6179044;23;20068;-90
2022/12/23 02:58:30;;;;;;;0.00;0.00;;;10.30;99.90;;;;;;6178381;23;20036;-92
2022/12/23 03:00:58;;;;;;;0.10;0.10;;;10.30;99.90;;;;;;6176159;23;20300;-89
2022/12/23 03:03:25;;;;;;;0.10;0.10;;;10.30;99.90;;;;;;6178133;23;20028;-91
2022/12/23 03:05:52;;;;;;;0.10;0.10;;;10.30;99.90;;;;;;6176957;23;20015;-92
2022/12/23 03:08:24;;;;;;;0.10;0.10;;;10.40;99.90;;;;;;6205990;23;20020;-90
2022/12/23 03:11:10;;;;;;;0.05;0.05;;;10.40;99.90;;;;;;6179668;23;20001;-89
2022/12/23 03:14:02;;;;;;;0.10;0.10;;;10.40;99.90;;;;;;6177670;23;20053;-89
2022/12/23 03:16:37;;;;;;;0.08;0.08;;;10.30;99.90;;;;;;6178609;23;20001;-91
2022/12/23 03:19:17;;;;;;;0.10;0.10;;;11.70;99.90;;;;;;6179978;23;20060;-90
2022/12/23 03:22:09;;;;;;;0.00;0.00;;;10.40;99.90;;;;;;6180033;23;20023;-91
2022/12/23 03:24:39;;;;;;;0.10;0.10;;;10.40;99.90;;;;;;6179195;23;20008;-92
2022/12/23 03:27:15;;;;;;;0.10;0.10;;;10.30;99.90;;;;;;6179683;23;20005;-92
2022/12/23 03:29:52;;;;;;;0.00;0.00;;;10.50;99.90;;;;;;6179140;23;20065;-91
2022/12/23 03:32:20;;;;;;;0.00;0.00;;;10.40;99.90;;;;;;6175638;23;20028;-91
2022/12/23 03:34:50;;;;;;;0.03;0.03;;;10.40;99.90;;;;;;6179004;23;19989;-90
2022/12/23 03:37:20;;;;;;;0.00;0.00;;;10.40;99.90;;;;;;6182123;23;20005;-91
2022/12/23 03:39:50;;;;;;;0.00;0.00;;;10.70;99.90;;;;;;6180938;23;20065;-91
2022/12/23 03:42:37;;;;;;;0.00;0.00;;;10.50;99.90;;;;;;6181230;23;20012;-90
2022/12/23 03:45:26;;;;;;;0.00;0.00;;;10.40;99.90;;;;;;6180425;23;19986;-90
2022/12/23 03:47:59;;;;;;;0.00;0.00;;;10.50;99.90;;;;;;6181826;23;20020;-91
2022/12/23 03:50:26;;;;;;;0.03;0.03;;;10.50;99.90;;;;;;6176497;23;20005;-90
2022/12/23 03:52:57;;;;;;;0.08;0.08;;;10.20;99.90;;;;;;6179478;23;20008;-91
2022/12/23 03:55:31;;;;;;;0.00;0.00;;;10.40;99.90;;;;;;6177955;23;20005;-91
2022/12/23 03:58:03;;;;;;;0.00;0.00;;;10.40;99.90;;;;;;6180234;23;20468;-92
2022/12/23 04:00:34;;;;;;;0.00;0.00;;;11.40;99.90;;;;;;6178401;23;20015;-91
2022/12/23 04:03:26;;;;;;;0.00;0.00;;;10.40;99.90;;;;;;6185058;23;20008;-92
2022/12/23 04:05:57;;;;;;;0.00;0.00;;;10.40;99.90;;;;;;6182164;23;20005;-90
2022/12/23 04:08:32;;;;;;;0.00;0.00;;;10.40;99.90;;;;;;6179286;23;20001;-91
2022/12/23 04:10:58;;;;;;;0.10;0.10;;;10.50;99.90;;;;;;6180211;23;20005;-90
2022/12/23 04:13:28;;;;;;;0.00;0.00;;;10.40;99.90;;;;;;6180661;23;20386;-92
2022/12/23 04:15:57;;;;;;;0.00;0.00;;;10.50;99.90;;;;;;6180055;23;20005;-91
2022/12/23 04:18:22;;;;;;;0.10;0.10;;;10.50;99.90;;;;;;6179999;23;20005;-88
2022/12/23 04:20:47;;;;;;;0.00;0.00;;;10.50;99.90;;;;;;6179795;23;20415;-91
2022/12/23 04:23:13;;;;;;;0.00;0.00;;;10.40;99.90;;;;;;6179281;23;20012;-91
2022/12/23 04:25:39;;;;;;;0.00;0.00;;;;;;;;;;6178837;23;20005;-91
2022/12/23 04:28:04;;;;;;;0.05;0.05;;;10.50;99.90;;;;;;6179002;23;20017;-92
2022/12/23 04:30:30;;;;;;;0.10;0.10;;;10.40;99.90;;;;;;6177113;23;20072;-91
2022/12/23 04:32:55;;;;;;;0.00;0.00;;;10.50;99.90;;;;;;6178925;23;20032;-91
2022/12/23 04:35:21;;;;;;;0.00;0.00;;;;;;;;;;6177776;23;20009;-92
2022/12/23 04:37:47;;;;;;;0.10;0.10;;;;;;;;;;6176805;23;20021;-91
2022/12/23 04:40:13;;;;;;;0.00;0.00;;;10.50;99.90;;;;;;6179743;23;20020;-90
2022/12/23 04:42:38;;;;;;;0.00;0.00;;;11.10;99.90;;;;;;6176750;23;20129;-91
2022/12/23 04:45:04;;;;;;;0.00;0.00;;;10.40;99.90;;;;;;6177715;23;20001;-91
2022/12/23 04:47:30;;;;;;;0.10;0.10;;;;;;;;;;6175388;23;20001;-90
2022/12/23 04:49:56;;;;;;;0.00;0.00;;;10.50;99.90;;;;;;6179656;23;20009;-91
2022/12/23 04:52:22;;;;;;;0.10;0.10;;;10.50;99.90;;;;;;6178330;23;20250;-91
2022/12/23 04:54:47;;;;;;;0.00;0.00;;;10.30;99.90;;;;;;6178555;23;20005;-92
2022/12/23 04:57:14;;;;;;;0.10;0.10;;;10.30;99.90;;;;;;6179681;23;20036;-91
2022/12/23 04:59:39;;;;;;;0.00;0.00;;;10.10;99.90;;;;;;6176789;23;20305;-90
2022/12/23 05:02:05;;;;;;;0.00;0.00;;;10.20;99.90;;;;;;6176545;23;20073;-91
2022/12/23 05:04:31;;;;;;;0.00;0.00;;;10.10;99.90;;;;;;6178769;23;20001;-91
2022/12/23 05:06:56;;;;;;;0.00;0.00;;;9.90;99.90;;;;;;6178832;23;20028;-91
2022/12/23 05:09:22;;;;;;;0.10;0.10;;;10.00;99.90;;;;;;6172720;23;20005;-91
2022/12/23 05:11:47;;;;;;;0.10;0.10;;;12.00;99.90;;;;;;6174582;23;20009;-90
2022/12/23 05:14:13;;;;;;;0.00;0.00;;;;;;;;;;6174565;23;19993;-90
2022/12/23 05:16:39;;;;;;;0.10;0.10;;;;;;;;;;6178556;23;20013;-90
2022/12/23 05:19:05;;;;;;;0.00;0.00;;;10.00;99.90;;;;;;6178896;23;20090;-90
2022/12/23 05:21:30;;;;;;;0.10;0.10;;;10.10;99.90;;;;;;6175657;23;20037;-89
2022/12/23 05:23:56;;;;;;;0.00;0.00;;;;;;;;;;6175574;23;20028;-90
2022/12/23 05:26:22;;;;;;;0.03;0.03;;;;;;;;;;6175737;23;20032;-90
2022/12/23 05:28:48;;;;;;;0.08;0.08;;;10.20;99.90;;;;;;6176537;23;20028;-90
2022/12/23 05:31:14;;;;;;;0.00;0.00;;;10.10;99.90;;;;;;6178526;23;20008;-89
2022/12/23 05:33:40;;;;;;;0.00;0.00;;;;;;;;;;6179743;23;20437;-90
2022/12/23 05:36:06;;;;;;;0.00;0.00;;;10.00;99.90;;;;;;6180547;23;20012;-90
2022/12/23 05:38:32;;;;;;;0.00;0.00;;;9.90;99.90;;;;;;6180338;23;20063;-91
2022/12/23 05:40:58;;;;;;;0.10;0.10;;;;;;;;;;6180111;23;20001;-91
2022/12/23 05:43:24;;;;;;;0.10;0.10;;;9.70;99.90;;;;;;6179331;23;20005;-90
2022/12/23 05:45:50;;;;;;;0.10;0.10;;;9.60;99.90;;;;;;6177329;23;20005;-91
2022/12/23 05:48:15;;;;;;;0.00;0.00;;;9.50;99.90;;;;;;6179390;23;20382;-90
2022/12/23 05:50:41;;;;;;;0.10;0.10;;;9.90;99.90;;;;;;6176502;23;19985;-91
2022/12/23 05:53:06;;;;;;;0.10;0.10;;;9.50;99.90;;;;;;6179945;23;20201;-92
2022/12/23 05:55:32;;;;;;;0.10;0.10;;;9.40;99.90;;;;;;6176361;23;20005;-91
2022/12/23 05:57:58;;;;;;;0.00;0.00;;;;;;;;;;6181383;23;20020;-90
2022/12/23 06:00:24;;;;;;;0.00;0.00;;;;;;;;;;6178668;23;20017;-89
2022/12/23 06:02:49;;;;;;;0.00;0.00;;;9.50;99.90;;;;;;6182300;23;20288;-90
2022/12/23 06:05:15;;;;;;;0.00;0.00;;;;;;;;;;6208167;23;20009;-91
2022/12/23 06:07:41;;;;;;;0.00;0.00;;;9.60;99.90;;;;;;6179095;23;20017;-90
2022/12/23 06:10:09;;;;;;;0.10;0.10;;;9.70;99.90;;;;;;6182623;23;20037;-92
2022/12/23 06:12:35;;;;;;;0.10;0.10;;;9.70;99.90;;;;;;6180876;23;19989;-88
2022/12/23 06:15:01;;;;;;;0.00;0.00;;;;;;;;;;6182403;23;20081;-91
2022/12/23 06:17:27;;;;;;;0.10;0.10;;;;;;;;;;6178852;23;20477;-92
2022/12/23 06:19:53;;;;;;;0.10;0.10;;;;;;;;;;6180161;23;20016;-90
2022/12/23 06:22:20;;;;;;;0.10;0.10;;;;;;;;;;6182278;23;20017;-92
2022/12/23 06:24:46;;;;;;;0.10;0.10;;;;;;;;;;6183115;23;20013;-91
2022/12/23 06:27:12;;;;;;;0.05;0.05;;;;;;;;;;6181895;23;20016;-92
2022/12/23 06:29:38;;;;;;;0.03;0.03;;;9.70;99.90;;;;;;6182231;23;20024;-91
2022/12/23 06:32:04;;;;;;;0.00;0.00;;;9.60;99.90;;;;;;6181661;23;20012;-92
2022/12/23 06:34:30;;;;;;;0.00;0.00;;;;;;;;;;6180317;23;20020;-91
2022/12/23 06:36:56;;;;;;;0.00;0.00;;;9.60;99.90;;;;;;6180962;23;20032;-90
2022/12/23 06:39:21;;;;;;;0.03;0.03;;;9.60;99.90;;;;;;6180706;23;20206;-91
2022/12/23 06:41:47;;;;;;;0.05;0.05;;;9.90;99.90;;;;;;6181464;23;20521;-90
2022/12/23 06:44:12;;;;;;;0.10;0.10;;;9.70;99.90;;;;;;6182407;23;19988;-92
2022/12/23 06:46:38;;;;;;;0.00;0.00;;;9.70;99.90;;;;;;6183545;23;19997;-90
2022/12/23 06:49:04;;;;;;;0.00;0.00;;;9.70;99.90;;;;;;6181625;23;20060;-91
2022/12/23 06:51:30;;;;;;;0.10;0.10;;;;;;;;;;6182911;23;20052;-90
2022/12/23 06:53:57;;;;;;;0.00;0.00;;;9.70;99.90;;;;;;6181062;23;20012;-91
2022/12/23 06:56:23;;;;;;;0.00;0.00;;;;;;;;;;6182634;23;20346;-91
2022/12/23 06:58:48;;;;;;;0.00;0.00;;;9.70;99.90;;;;;;6181346;23;20119;-91
2022/12/23 07:01:14;;;;;;;0.00;0.00;;;9.70;99.90;;;;;;6181044;23;20416;-91
2022/12/23 07:03:40;;;;;;;0.10;0.10;;;;;;;;;;6181749;23;19977;-90
2022/12/23 07:06:05;;;;;;;0.00;0.00;;;9.70;99.90;;;;;;6182938;23;20001;-92
2022/12/23 07:08:31;;;;;;;0.00;0.00;;;9.70;99.90;;;;;;6178297;23;20013;-92
2022/12/23 07:11:02;;;;;;;0.00;0.00;;;9.70;99.90;;;;;;6181080;23;20012;-90
2022/12/23 07:13:28;;;;;;;0.00;0.00;;;9.80;99.90;;;;;;6182051;23;20080;-91
2022/12/23 07:15:54;;;;;;;0.00;0.00;;;9.80;99.90;;;;;;6182500;23;20005;-90
2022/12/23 07:18:24;;;;;;;0.00;0.00;;;9.70;99.90;;;;;;6180894;23;20047;-92
2022/12/23 07:20:50;;;;;;;0.10;0.10;;;9.70;99.90;;;;;;6183474;23;20004;-90
2022/12/23 07:23:16;;;;;;;0.00;0.00;;;9.80;99.90;;;;;;6182812;23;20426;-91
2022/12/23 07:25:42;;;;;;;0.08;0.08;;;9.70;99.90;;;;;;6178795;23;20008;-90
2022/12/23 07:28:08;;;;;;;0.00;0.00;;;;;;;;;;6183504;23;20001;-90
2022/12/23 07:30:34;;;;;;;0.00;0.00;;;9.80;99.90;;;;;;6181484;23;20040;-91
2022/12/23 07:33:00;;;;;;;0.00;0.00;;;;;;;;;;6182923;23;19981;-91
2022/12/23 07:35:26;;;;;;;0.00;0.00;;;;;;;;;;6183195;23;19993;-91
2022/12/23 07:37:53;;;;;;;0.10;0.10;;;9.70;99.90;;;;;;6185573;23;19997;-91
2022/12/23 07:40:19;;;;;;;0.00;0.00;;;9.60;99.90;;;;;;6184861;23;20009;-91
2022/12/23 07:42:52;;;;;;;0.00;0.00;;;9.70;99.90;;;;;;6182533;23;20048;-90
2022/12/23 07:45:18;;;;;;;0.03;0.03;;;;;;;;;;6183978;23;20015;-89
2022/12/23 07:47:44;;;;;;;0.10;0.10;;;9.70;99.90;;;;;;6183941;23;19997;-90
2022/12/23 07:50:09;;;;;;;0.00;0.00;;;9.60;99.90;;;;;;6183061;23;20009;-91
2022/12/23 07:52:35;;;;;;;0.10;0.10;;;9.80;99.90;;;;;;6179722;23;20013;-91
2022/12/23 07:55:01;;;;;;;0.10;0.10;;;;;;;;;;6180645;23;20099;-91
2022/12/23 07:57:28;;;;;;;0.00;0.00;;;9.70;99.90;;;;;;6181881;23;20082;-92
2022/12/23 07:59:53;;;;;;;0.05;0.05;;;9.80;99.90;;;;;;6180543;23;20225;-91
2022/12/23 08:02:20;;;;;;;0.00;0.00;;;9.80;99.90;;;;;;6176188;23;19993;-90
2022/12/23 08:04:46;;;;;;;0.10;0.10;;;;;;;;;;6179215;23;19989;-91
2022/12/23 08:07:12;;;;;;;0.00;0.00;;;;;;;;;;6184073;23;20048;-91
2022/12/23 08:09:38;;;;;;;0.10;0.10;;;;;;;;;;6183245;23;19992;-91
2022/12/23 08:12:04;;;;;;;0.10;0.10;;;9.40;99.90;;;;;;6184613;23;20009;-91
2022/12/23 08:14:29;;;;;;;0.00;0.00;;;9.50;99.90;;;;;;6182094;23;20035;-91
2022/12/23 08:16:55;;;;;;;0.00;0.00;;;;;;;;;;6181477;23;19997;-89
2022/12/23 08:19:21;;;;;;;0.05;0.05;;;9.60;99.90;;;;;;6179215;23;20009;-91
2022/12/23 08:21:46;;;;;;;0.00;0.00;;;9.70;99.90;;;;;;6180851;23;20013;-91
2022/12/23 08:24:12;;;;;;;0.00;0.00;;;;;;;;;;6178704;23;20008;-91
2022/12/23 08:26:38;;;;;;;0.10;0.10;;;9.60;99.90;;;;;;6182555;23;20052;-89
2022/12/23 08:29:03;;;;;;;0.10;0.10;;;;;;;;;;6182728;23;19993;-91
2022/12/23 08:31:33;;;;;;;0.10;0.10;;;;;;;;;;6179565;23;20016;-92
2022/12/23 08:33:59;;;;;;;0.10;0.10;;;9.50;99.90;;;;;;6182238;23;20005;-90
2022/12/23 08:36:32;;;;;;;0.00;0.00;;;9.60;99.90;;;;;;6178595;23;19997;-91
2022/12/23 08:38:59;;;;;;;0.10;0.10;;;9.60;99.90;;;;;;6183359;23;20011;-91
2022/12/23 08:57:20;;;;;;;0.00;0.00;;;9.70;99.90;;;;;;6180942;23;20012;-90
2022/12/23 08:59:55;;;;;;;0.00;0.00;;;9.60;99.90;;;;;;6156077;23;20032;-91
2022/12/23 09:02:23;;;;;;;0.10;0.10;;;;;;;;;;6173753;23;20016;-91
2022/12/23 09:04:49;;;;;;;0.10;0.10;;;;;;;;;;6183129;23;19985;-90
2022/12/23 09:41:33;;;;;;;0.00;0.00;;;10.30;99.90;;;;;;6160157;23;20018;-91
2022/12/23 09:44:25;;;;;;;0.00;0.00;;;10.40;99.90;;;;;;6130068;23;20009;-92
2022/12/23 09:46:55;;;;;;;0.00;0.00;;;10.40;99.90;;;;;;6133099;23;20040;-92
2022/12/23 09:49:22;;;;;;;0.00;0.00;;;10.40;99.90;;;;;;6154409;23;20032;-91
2022/12/23 09:51:49;;;;;;;0.00;0.00;;;;;;;;;;6161147;23;20009;-92
2022/12/23 09:54:24;;;;;;;0.00;0.00;;;10.40;99.90;;;;;;6164225;23;20067;-91
2022/12/23 09:57:04;;;;;;;0.00;0.00;;;10.50;99.90;;;;;;6165014;23;20032;-90
2022/12/23 09:59:51;;;;;;;0.00;0.00;;;10.40;99.90;;;;;;6161144;23;20029;-92
2022/12/23 10:02:35;;;;;;;0.00;0.00;;;10.40;99.90;;;;;;6165131;23;20001;-92
2022/12/23 10:05:26;;;;;;;0.00;0.00;;;10.50;99.90;;;;;;6162831;23;20556;-91
2022/12/23 10:08:00;;;;;;;0.10;0.10;;;10.40;99.90;;;;;;6165077;23;20055;-92
2022/12/23 10:10:43;;;;;;;0.10;0.10;;;10.40;99.90;;;;;;6165004;23;20052;-92
2022/12/23 10:13:19;;;;;;;0.00;0.00;;;10.40;99.90;;;;;;6163938;23;20005;-90
2022/12/23 10:15:48;;;;;;;0.10;0.10;;;10.30;99.90;;;;;;6165890;23;20452;-90
2022/12/23 10:18:21;;;;;;;0.00;0.00;;;10.20;99.90;;;;;;6165915;23;20453;-90
2022/12/23 10:20:53;;;;;;;0.00;0.00;;;10.10;99.90;;;;;;6164274;23;20005;-91
2022/12/23 10:23:30;;;;;;;0.00;0.00;;;10.10;99.90;;;;;;6163409;23;20001;-91
2022/12/23 10:25:56;;;;;;;0.00;0.00;;;;;;;;;;6163687;23;20051;-91
2022/12/23 10:28:22;;;;;;;0.00;0.00;;;;;;;;;;6161912;23;20043;-90
2022/12/23 10:31:10;;;;;;;0.10;0.10;;;10.10;99.90;;;;;;6165413;23;20001;-90
2022/12/23 10:33:47;;;;;;;0.00;0.00;;;10.10;99.90;;;;;;6167318;23;20009;-89
2022/12/23 10:36:32;;;;;;;0.00;0.00;;;10.00;99.90;;;;;;6168500;23;20564;-92
2022/12/23 10:39:07;;;;;;;0.00;0.00;;;10.00;99.90;;;;;;6163785;23;20016;-91
2022/12/23 10:41:52;;;;;;;0.00;0.00;;;9.50;99.90;;;;;;6167699;23;20001;-93
2022/12/23 10:44:39;;;;;;;0.08;0.08;;;9.50;99.90;;;;;;6165729;23;19997;-92
2022/12/23 10:47:14;;;;;;;0.10;0.10;;;9.90;99.90;;;;;;6166285;23;20441;-91
2022/12/23 10:50:25;;;;;;;0.00;0.00;;;10.00;99.90;;;;;;6180241;23;20581;-94
2022/12/23 10:52:53;;;;;;;0.00;0.00;;;10.00;99.90;;;;;;6178376;23;20009;-92
2022/12/23 10:55:24;;;;;;;0.10;0.10;;;10.00;99.90;;;;;;6167501;23;20016;-91
2022/12/23 10:57:51;;;;;;;0.00;0.00;;;10.00;99.90;;;;;;6166155;23;20032;-91
2022/12/23 11:00:21;;;;;;;0.00;0.00;;;10.10;99.90;;;;;;6165930;23;20005;-92
2022/12/23 11:03:15;;;;;;;0.00;0.00;;;10.00;99.90;;;;;;6166419;23;20338;-91
2022/12/23 11:05:42;;;;;;;0.00;0.00;;;10.10;99.90;;;;;;6164865;23;20005;-91
2022/12/23 11:08:08;;;;;;;0.00;0.00;;;10.20;99.90;;;;;;6162740;23;20175;-92
2022/12/23 11:10:34;;;;;;;0.00;0.00;;;;;;;;;;6158798;23;20009;-92
2022/12/23 11:13:00;;;;;;;0.00;0.00;;;;;;;;;;6159510;23;20012;-92
2022/12/23 11:15:39;;;;;;;0.00;0.00;;;10.50;99.90;;;;;;6161927;23;20013;-92
2022/12/23 11:18:11;;;;;;;0.00;0.00;;;10.60;99.90;;;;;;6177185;23;20505;-92
2022/12/23 11:20:37;;;;;;;0.00;0.00;;;;;;;;;;6161710;23;20013;-91
2022/12/23 11:23:05;;;;;;;0.00;0.00;;;10.70;99.90;;;;;;6161963;23;20013;-91
2022/12/23 11:25:42;;;;;;;0.00;0.00;;;10.80;99.90;;;;;;6164334;23;20140;-92
2022/12/23 11:28:10;;;;;;;0.00;0.00;;;10.70;99.90;;;;;;6162045;23;20005;-92
2022/12/23 11:31:10;;;;;;;0.00;0.00;;;10.40;99.90;;;;;;6162808;23;20195;-93
2022/12/23 11:33:44;;;;;;;0.10;0.10;;;10.70;99.90;;;;;;6167159;23;20012;-90
2022/12/23 11:36:13;;;;;;;0.00;0.00;;;10.70;99.90;;;;;;6166479;23;20047;-92
2022/12/23 11:38:52;;;;;;;0.00;0.00;;;10.70;99.90;;;;;;6167277;23;20005;-92
2022/12/23 11:41:28;;;;;;;0.00;0.00;;;10.80;99.90;;;;;;6163944;23;20421;-91
2022/12/23 11:44:05;;;;;;;0.00;0.00;;;10.70;99.90;;;;;;6168119;23;20005;-92
2022/12/23 11:46:33;;;;;;;0.00;0.00;;;10.70;99.90;;;;;;6165468;23;20001;-92
2022/12/23 11:49:12;;;;;;;0.10;0.10;;;10.60;99.90;;;;;;6166633;23;20073;-91
2022/12/23 11:51:38;;;;;;;0.00;0.00;;;;;;;;;;6167976;23;20029;-93
2022/12/23 11:54:04;;;;;;;0.00;0.00;;;;;;;;;;6168134;23;20016;-91
2022/12/23 11:56:36;;;;;;;0.00;0.00;;;10.70;99.90;;;;;;6165104;23;20036;-92
2022/12/23 11:59:07;;;;;;;0.00;0.00;;;10.70;99.90;;;;;;6169054;23;20016;-93
2022/12/23 12:01:35;;;;;;;0.00;0.00;;;10.80;99.90;;;;;;6166387;23;20039;-92
2022/12/23 12:04:10;;;;;;;0.00;0.00;;;10.70;99.90;;;;;;6165969;23;20043;-92
2022/12/23 12:06:42;;;;;;;0.00;0.00;;;10.70;99.90;;;;;;6163664;23;20001;-91
2022/12/23 12:09:12;;;;;;;0.00;0.00;;;10.80;99.90;;;;;;6166537;23;20317;-91
2022/12/23 12:11:45;;;;;;;0.10;0.10;;;10.80;99.90;;;;;;6160661;23;20497;-91
2022/12/23 12:14:27;;;;;;;0.00;0.00;;;10.70;99.90;;;;;;6163808;23;20012;-92
2022/12/23 12:17:02;;;;;;;0.00;0.00;;;10.70;99.90;;;;;;6164472;23;20005;-91
2022/12/23 12:19:34;;;;;;;0.00;0.00;;;10.60;99.90;;;;;;6163359;23;20005;-91
2022/12/23 12:22:05;;;;;;;0.00;0.00;;;10.70;99.90;;;;;;6170961;23;20009;-90
2022/12/23 12:24:46;;;;;;;0.00;0.00;;;10.70;99.90;;;;;;6164659;23;20012;-90
2022/12/23 12:27:12;;;;;;;0.00;0.00;;;10.60;99.90;;;;;;6165658;23;20079;-91
2022/12/23 12:29:47;;;;;;;0.00;0.00;;;11.00;99.90;;;;;;6164609;23;20434;-90
2022/12/23 12:32:42;;;;;;;0.00;0.00;;;10.30;99.90;;;;;;6162923;23;20032;-92
2022/12/23 12:35:37;;;;;;;0.00;0.00;;;10.60;99.90;;;;;;6153546;23;20001;-91
2022/12/23 12:38:25;;;;;;;0.00;0.00;;;10.60;99.90;;;;;;6160897;23;20491;-91
2022/12/23 12:41:00;;;;;;;0.00;0.00;;;10.50;99.90;;;;;;6164100;23;20012;-91
2022/12/23 12:43:32;;;;;;;0.00;0.00;;;10.20;99.90;;;;;;6163188;23;20397;-92
2022/12/23 12:46:21;;;;;;;0.00;0.00;;;10.20;99.90;;;;;;6164410;23;20357;-91
2022/12/23 12:48:56;;;;;;;0.00;0.00;;;10.20;99.90;;;;;;6164232;23;20141;-90
2022/12/23 12:52:01;;;;;;;0.00;0.00;;;10.00;99.90;;;;;;6162428;23;20342;-91
2022/12/23 12:54:46;;;;;;;0.00;0.00;;;10.30;99.90;;;;;;6162958;23;20004;-91
2022/12/23 12:57:15;;;;;;;0.00;0.00;;;10.30;99.90;;;;;;6163810;23;20028;-91
2022/12/23 12:59:42;;;;;;;0.10;0.10;;;10.40;99.90;;;;;;6165197;23;20005;-91
2022/12/23 13:02:27;;;;;;;0.00;0.00;;;10.30;99.90;;;;;;6165981;23;20202;-90
2022/12/23 13:05:06;;;;;;;0.00;0.00;;;10.00;99.90;;;;;;6167382;23;20088;-91
2022/12/23 13:07:36;;;;;;;0.00;0.00;;;9.90;99.90;;;;;;6164684;23;20235;-91
2022/12/23 13:10:35;;;;;;;0.00;0.00;;;10.10;99.90;;;;;;6165251;23;20064;-91
2022/12/23 13:13:44;;;;;;;0.10;0.10;;;10.10;99.90;;;;;;6165047;23;20366;-92
2022/12/23 13:16:30;;;;;;;0.00;0.00;;;10.10;99.90;;;;;;6163520;23;20031;-92
2022/12/23 13:19:14;;;;;;;0.00;0.00;;;9.80;99.90;;;;;;6164886;23;20005;-91
2022/12/23 13:21:50;;;;;;;0.00;0.00;;;10.70;99.90;;;;;;6162717;23;20001;-91
2022/12/23 13:24:25;;;;;;;0.00;0.00;;;10.00;99.90;;;;;;6162778;23;19997;-91
2022/12/23 13:27:06;;;;;;;0.00;0.00;;;10.20;99.90;;;;;;6168108;23;20446;-90
2022/12/23 13:29:52;;;;;;;0.00;0.00;;;10.00;99.90;;;;;;6164009;23;20006;-90
2022/12/23 13:32:46;;;;;;;0.00;0.00;;;10.00;99.90;;;;;;6166099;23;20008;-91
2022/12/23 13:35:32;;;;;;;0.00;0.00;;;9.90;99.90;;;;;;6164534;23;20027;-91
2022/12/23 13:38:19;;;;;;;0.10;0.10;;;10.40;99.90;;;;;;6167994;23;20029;-91
2022/12/23 13:41:03;;;;;;;0.10;0.10;;;9.90;99.90;;;;;;6170307;23;20037;-90
2022/12/23 13:43:46;;;;;;;0.10;0.10;;;10.00;99.90;;;;;;6167250;23;20028;-91
2022/12/23 13:46:46;;;;;;;0.10;0.10;;;10.00;99.90;;;;;;6163810;23;20005;-90
2022/12/23 13:49:16;;;;;;;;;;;9.90;99.90;;;;;;6150620;23;20005;-91
2022/12/23 13:51:47;;;;;;;0.08;0.08;;;10.00;99.90;;;;;;6164693;23;20123;-92
2022/12/23 13:54:49;;;;;;;0.08;0.08;;;11.10;99.90;;;;;;6164934;23;20017;-91
2022/12/23 13:57:23;;;;;;;0.00;0.00;;;10.00;99.90;;;;;;6169582;23;20059;-92
2022/12/23 14:00:31;;;;;;;0.00;0.00;;;10.00;99.90;;;;;;6168108;23;20008;-91
2022/12/23 14:02:58;;;;;;;0.03;0.03;;;;;;;;;;6124483;23;20032;-90
2022/12/23 14:05:51;;;;;;;0.10;0.10;;;9.90;99.90;;;;;;6170651;23;20502;-90
2022/12/23 14:08:17;;;;;;;0.00;0.00;;;;;;;;;;6179135;23;20001;-91
2022/12/23 14:11:09;;;;;;;0.00;0.00;;;9.90;99.90;;;;;;6185333;23;20025;-92
2022/12/23 14:13:50;;;;;;;0.00;0.00;;;9.90;99.90;;;;;;6146420;23;20024;-93
2022/12/23 14:16:39;;;;;;;0.08;0.08;;;9.80;99.90;;;;;;6177142;23;20005;-93
2022/12/23 14:19:29;;;;;;;0.00;0.00;;;9.80;99.90;;;;;;6172081;23;20005;-93
2022/12/23 14:22:27;;;;;;;0.00;0.00;;;9.90;99.90;;;;;;6171284;23;19997;-93
2022/12/23 14:25:13;;;;;;;0.00;0.00;;;9.80;99.90;;;;;;6174109;23;20450;-92
2022/12/23 14:27:48;;;;;;;0.00;0.00;;;9.80;99.90;;;;;;6173334;23;20012;-91
2022/12/23 14:30:34;;;;;;;0.00;0.00;;;9.80;99.90;;;;;;6172611;23;20100;-92
2022/12/23 14:33:30;;;;;;;0.10;0.10;;;9.80;99.90;;;;;;6170777;23;20001;-92
2022/12/23 14:36:12;;;;;;;0.10;0.10;;;9.80;99.90;;;;;;6169204;23;20041;-93
2022/12/23 14:38:40;;;;;;;0.10;0.10;;;9.80;99.90;;;;;;6173492;23;20005;-93
2022/12/23 14:41:47;;;;;;;0.00;0.00;;;9.80;99.90;;;;;;6176506;23;20011;-93
2022/12/23 14:44:40;;;;;;;0.00;0.00;;;9.90;99.90;;;;;;6169317;23;20001;-90
2022/12/23 14:47:37;;;;;;;0.10;0.10;;;9.90;99.90;;;;;;6173189;23;20061;-92
2022/12/23 14:54:05;;;;;;;0.00;0.00;;;9.80;99.90;;;;;;6189018;23;20051;-95
2022/12/23 22:29:38;;;;;;;0.00;0.00;;;9.20;99.90;;;;;;6168557;23;20044;-91
2022/12/23 22:32:03;;;;;;;0.03;0.03;;;9.20;99.90;;;;;;6161862;23;20001;-93
2022/12/23 22:34:29;;;;;;;0.00;0.00;;;9.30;99.90;;;;;;6156369;23;20005;-92